createdAt,value
2022-11-26T00:02:28.762Z,9.30
2022-11-26T00:04:59.532Z,9.40
2022-11-26T00:07:29.985Z,9.30
2022-11-26T00:09:59.270Z,9.30
2022-11-26T00:12:29.182Z,9.30
2022-11-26T00:14:56.592Z,9.20
2022-11-26T00:17:24.075Z,9.20
2022-11-26T00:19:51.510Z,9.20
2022-11-26T00:22:52.879Z,9.10
2022-11-26T00:25:26.954Z,9.10
2022-11-26T00:27:56.214Z,9.10
2022-11-26T00:30:26.448Z,9.10
2022-11-26T00:32:55.659Z,9.00
2022-11-26T00:35:24.194Z,9.00
2022-11-26T00:37:55.161Z,9.00
2022-11-26T00:40:24.615Z,9.00
2022-11-26T00:42:56.242Z,9.00
2022-11-26T00:45:28.980Z,9.00
2022-11-26T00:47:59.017Z,9.00
2022-11-26T00:50:28.241Z,9.00
2022-11-26T00:52:57.134Z,9.00
2022-11-26T00:55:35.154Z,8.90
2022-11-26T00:58:03.447Z,8.90
2022-11-26T01:00:33.621Z,8.90
2022-11-26T01:03:02.010Z,8.90
2022-11-26T01:05:33.582Z,8.90
2022-11-26T01:08:11.376Z,8.90
2022-11-26T01:10:38.787Z,8.90
2022-11-26T01:13:06.542Z,9.00
2022-11-26T01:15:33.907Z,8.90
2022-11-26T01:18:01.320Z,9.00
2022-11-26T01:20:30.939Z,9.00
2022-11-26T01:22:59.160Z,9.00
2022-11-26T01:25:27.275Z,9.00
2022-11-26T01:27:55.079Z,9.00
2022-11-26T01:30:29.475Z,9.00
2022-11-26T01:32:57.126Z,9.00
2022-11-26T01:35:24.654Z,9.00
2022-11-26T01:37:52.058Z,9.10
2022-11-26T01:40:25.483Z,9.00
2022-11-26T01:43:17.175Z,9.00
2022-11-26T01:45:44.662Z,9.10
2022-11-26T01:48:38.425Z,9.10
2022-11-26T01:51:07.791Z,9.10
2022-11-26T01:53:56.614Z,9.10
2022-11-26T01:56:54.203Z,9.10
2022-11-26T01:59:29.714Z,9.10
2022-11-26T02:01:59.332Z,9.10
2022-11-26T02:04:30.093Z,9.10
2022-11-26T02:06:57.902Z,9.10
2022-11-26T02:09:27.700Z,9.20
2022-11-26T02:11:55.539Z,9.10
2022-11-26T02:14:32.274Z,9.20
2022-11-26T02:17:24.172Z,9.20
2022-11-26T02:24:43.785Z,9.20
2022-11-26T02:27:14.147Z,9.20
2022-11-26T02:29:47.519Z,9.20
2022-11-26T02:32:19.693Z,9.20
2022-11-26T02:34:54.710Z,9.20
2022-11-26T02:37:27.837Z,9.20
2022-11-26T02:39:57.833Z,9.20
2022-11-26T02:42:27.762Z,9.30
2022-11-26T02:45:02.734Z,9.30
2022-11-26T02:47:32.589Z,9.30
2022-11-26T02:50:06.486Z,9.30
2022-11-26T02:52:37.536Z,9.30
2022-11-26T02:55:09.227Z,9.30
2022-11-26T02:57:44.465Z,9.30
2022-11-26T03:00:12.705Z,9.20
2022-11-26T03:02:49.196Z,9.30
2022-11-26T03:05:18.392Z,9.30
2022-11-26T03:07:49.303Z,9.30
2022-11-26T03:10:17.255Z,9.30
2022-11-26T03:12:44.673Z,9.30
2022-11-26T03:15:12.267Z,9.30
2022-11-26T03:17:39.666Z,9.30
2022-11-26T03:20:08.116Z,9.30
2022-11-26T03:22:35.656Z,9.30
2022-11-26T03:25:05.372Z,9.30
2022-11-26T03:27:32.895Z,9.30
2022-11-26T03:30:00.298Z,9.30
2022-11-26T03:32:27.802Z,9.30
2022-11-26T03:34:55.154Z,9.30
2022-11-26T03:37:22.582Z,9.30
2022-11-26T03:39:49.926Z,9.30
2022-11-26T03:42:17.293Z,9.30
2022-11-26T03:44:44.784Z,9.30
2022-11-26T03:47:12.400Z,9.30
2022-11-26T03:49:39.798Z,9.30
2022-11-26T03:52:07.186Z,9.30
2022-11-26T03:54:34.762Z,9.30
2022-11-26T03:57:02.201Z,9.30
2022-11-26T03:59:29.682Z,9.30
2022-11-26T04:01:57.149Z,9.30
2022-11-26T04:04:24.692Z,9.20
2022-11-26T04:06:52.856Z,9.20
2022-11-26T04:09:20.394Z,9.20
2022-11-26T04:11:47.824Z,9.20
2022-11-26T04:14:15.249Z,9.20
2022-11-26T04:16:42.708Z,9.20
2022-11-26T04:19:10.161Z,9.20
2022-11-26T04:21:37.590Z,9.30
2022-11-26T04:24:05.254Z,9.30
2022-11-26T04:26:32.719Z,9.30
2022-11-26T04:29:00.255Z,9.30
2022-11-26T04:31:27.679Z,9.30
2022-11-26T04:33:55.103Z,9.20
2022-11-26T04:36:22.509Z,9.20
2022-11-26T04:38:49.926Z,9.20
2022-11-26T04:41:17.314Z,9.20
2022-11-26T04:43:44.714Z,9.20
2022-11-26T04:46:12.148Z,9.30
2022-11-26T04:48:39.529Z,9.20
2022-11-26T04:51:06.909Z,9.20
2022-11-26T04:53:34.326Z,9.20
2022-11-26T04:56:01.882Z,9.20
2022-11-26T04:58:29.272Z,9.20
2022-11-26T05:00:56.605Z,9.20
2022-11-26T05:03:24.185Z,9.20
2022-11-26T05:05:51.539Z,9.20
2022-11-26T05:08:18.908Z,9.20
2022-11-26T05:10:46.325Z,9.20
2022-11-26T05:13:13.786Z,9.30
2022-11-26T05:15:41.200Z,9.30
2022-11-26T05:18:08.581Z,9.30
2022-11-26T05:20:35.979Z,9.30
2022-11-26T05:23:03.658Z,9.30
2022-11-26T05:25:31.075Z,9.30
2022-11-26T05:27:58.446Z,9.30
2022-11-26T05:30:25.823Z,9.30
2022-11-26T05:32:53.255Z,9.30
2022-11-26T05:35:20.927Z,9.30
2022-11-26T05:37:48.341Z,9.30
2022-11-26T05:40:15.875Z,9.30
2022-11-26T05:42:43.464Z,9.40
2022-11-26T05:45:11.182Z,9.40
2022-11-26T05:47:38.716Z,9.50
2022-11-26T05:50:06.894Z,9.50
2022-11-26T05:52:34.369Z,9.50
2022-11-26T05:55:01.842Z,9.50
2022-11-26T05:57:29.210Z,9.60
2022-11-26T05:59:56.561Z,9.60
2022-11-26T06:02:24.043Z,9.60
2022-11-26T06:04:51.604Z,9.60
2022-11-26T06:07:19.216Z,9.60
2022-11-26T06:09:46.649Z,9.60
2022-11-26T06:12:15.060Z,9.50
2022-11-26T06:14:43.486Z,9.50
2022-11-26T06:17:11.832Z,9.50
2022-11-26T06:19:39.751Z,9.50
2022-11-26T06:22:07.448Z,9.60
2022-11-26T06:24:34.897Z,9.60
2022-11-26T06:27:02.267Z,9.60
2022-11-26T06:29:29.851Z,9.70
2022-11-26T06:31:57.317Z,9.70
2022-11-26T06:34:24.878Z,9.70
2022-11-26T06:36:52.253Z,9.70
2022-11-26T06:39:19.672Z,9.70
2022-11-26T06:41:47.151Z,9.80
2022-11-26T06:44:14.617Z,9.70
2022-11-26T06:46:42.090Z,9.80
2022-11-26T06:49:10.903Z,9.80
2022-11-26T06:51:38.318Z,9.70
2022-11-26T06:54:05.939Z,9.80
2022-11-26T06:56:35.693Z,9.70
2022-11-26T06:59:03.307Z,9.70
2022-11-26T07:01:30.804Z,9.70
2022-11-26T07:03:58.278Z,9.70
2022-11-26T07:06:28.152Z,9.70
2022-11-26T07:08:57.726Z,9.80
2022-11-26T07:11:26.275Z,9.80
2022-11-26T07:13:54.353Z,9.70
2022-11-26T07:16:22.228Z,9.80
2022-11-26T07:18:51.699Z,9.80
2022-11-26T07:21:19.928Z,9.80
2022-11-26T07:23:47.807Z,9.80
2022-11-26T07:26:16.689Z,9.80
2022-11-26T07:28:45.170Z,9.80
2022-11-26T07:31:17.066Z,9.80
2022-11-26T07:33:45.607Z,9.80
2022-11-26T07:36:17.057Z,9.80
2022-11-26T07:38:44.725Z,9.90
2022-11-26T07:41:14.804Z,10.10
2022-11-26T07:43:43.190Z,10.00
2022-11-26T07:46:13.330Z,9.90
2022-11-26T07:48:41.089Z,10.00
2022-11-26T07:51:21.016Z,9.90
2022-11-26T07:53:49.524Z,9.90
2022-11-26T07:56:18.921Z,9.90
2022-11-26T07:58:47.077Z,10.00
2022-11-26T08:01:22.905Z,10.00
2022-11-26T08:03:51.626Z,10.00
2022-11-26T08:06:24.166Z,10.00
2022-11-26T08:08:52.300Z,10.10
2022-11-26T08:11:23.457Z,10.10
2022-11-26T08:13:54.864Z,10.10
2022-11-26T08:16:22.724Z,10.20
2022-11-26T08:18:54.452Z,10.20
2022-11-26T08:21:22.796Z,10.30
2022-11-26T08:23:51.416Z,10.30
2022-11-26T08:26:25.213Z,10.40
2022-11-26T08:28:55.734Z,10.40
2022-11-26T08:31:24.872Z,10.40
2022-11-26T08:33:52.456Z,10.40
2022-11-26T08:36:19.933Z,10.50
2022-11-26T08:38:47.279Z,10.50
2022-11-26T08:41:14.974Z,10.50
2022-11-26T08:44:05.573Z,10.50
2022-11-26T08:46:30.018Z,10.50
2022-11-26T08:48:57.934Z,10.50
2022-11-26T08:51:25.853Z,10.50
2022-11-26T08:53:53.279Z,10.50
2022-11-26T08:56:20.724Z,10.50
2022-11-26T08:58:49.029Z,10.50
2022-11-26T09:01:22.405Z,10.40
2022-11-26T09:03:51.419Z,10.40
2022-11-26T09:06:20.623Z,10.40
2022-11-26T09:09:06.529Z,10.40
2022-11-26T09:11:37.992Z,10.40
2022-11-26T09:14:05.941Z,10.50
2022-11-26T09:16:33.638Z,10.50
2022-11-26T09:19:02.498Z,10.50
2022-11-26T09:21:30.241Z,10.60
2022-11-26T09:23:57.799Z,10.60
2022-11-26T09:26:25.687Z,10.60
2022-11-26T09:28:53.148Z,10.60
2022-11-26T09:31:20.705Z,10.70
2022-11-26T09:33:48.200Z,10.70
2022-11-26T09:36:17.264Z,10.70
2022-11-26T09:38:45.555Z,10.80
2022-11-26T09:41:43.025Z,10.80
2022-11-26T09:44:19.320Z,10.90
2022-11-26T09:47:18.465Z,10.90
2022-11-26T09:49:51.484Z,10.90
2022-11-26T09:52:21.486Z,10.90
2022-11-26T09:54:53.548Z,11.00
2022-11-26T09:57:33.783Z,10.90
2022-11-26T10:00:20.316Z,11.00
2022-11-26T10:02:47.716Z,11.10
2022-11-26T10:05:21.033Z,11.10
2022-11-26T10:08:23.905Z,11.10
2022-11-26T10:11:37.431Z,11.20
2022-11-26T10:14:16.776Z,11.20
2022-11-26T10:16:47.959Z,11.30
2022-11-26T10:19:37.863Z,11.30
2022-11-26T10:22:40.383Z,11.30
2022-11-26T10:25:17.331Z,11.40
2022-11-26T10:27:45.814Z,11.40
2022-11-26T10:30:28.477Z,11.40
2022-11-26T10:33:00.127Z,11.40
2022-11-26T10:35:29.458Z,11.50
2022-11-26T10:37:57.514Z,11.50
2022-11-26T10:40:30.396Z,11.50
2022-11-26T10:43:11.039Z,11.60
2022-11-26T10:45:53.591Z,11.60
2022-11-26T10:48:29.396Z,11.70
2022-11-26T10:51:25.121Z,11.70
2022-11-26T10:54:02.819Z,11.70
2022-11-26T10:56:46.859Z,11.80
2022-11-26T10:59:44.690Z,11.80
2022-11-26T11:02:20.747Z,11.90
2022-11-26T11:04:54.250Z,11.90
2022-11-26T11:07:31.069Z,11.90
2022-11-26T11:10:06.373Z,12.00
2022-11-26T11:12:34.196Z,12.00
2022-11-26T11:15:23.213Z,12.10
2022-11-26T11:18:01.342Z,12.20
2022-11-26T11:20:38.932Z,12.20
2022-11-26T11:23:12.252Z,12.20
2022-11-26T11:25:43.836Z,12.20
2022-11-26T11:28:12.694Z,12.20
2022-11-26T11:30:41.628Z,12.20
2022-11-26T11:33:12.501Z,12.20
2022-11-26T11:35:39.956Z,12.20
2022-11-26T11:38:22.724Z,12.20
2022-11-26T11:40:50.798Z,12.20
2022-11-26T11:43:20.050Z,12.20
2022-11-26T11:46:15.461Z,12.20
2022-11-26T11:49:22.011Z,12.20
2022-11-26T11:51:58.294Z,12.30
2022-11-26T11:54:39.829Z,12.30
2022-11-26T11:57:22.518Z,12.30
2022-11-26T12:00:15.384Z,12.30
2022-11-26T12:03:04.038Z,12.30
2022-11-26T12:05:55.483Z,12.30
2022-11-26T12:08:29.257Z,12.40
2022-11-26T12:11:16.674Z,12.60
2022-11-26T12:13:55.665Z,12.80
2022-11-26T12:16:26.219Z,12.90
2022-11-26T12:18:57.973Z,12.90
2022-11-26T12:21:29.309Z,12.80
2022-11-26T12:24:22.972Z,12.90
2022-11-26T12:27:04.814Z,13.10
2022-11-26T12:29:47.203Z,13.60
2022-11-26T12:32:36.168Z,13.70
2022-11-26T12:35:10.667Z,13.60
2022-11-26T12:37:41.902Z,13.50
2022-11-26T12:40:29.739Z,13.50
2022-11-26T12:43:17.996Z,13.40
2022-11-26T12:46:06.296Z,13.30
2022-11-26T12:49:18.163Z,13.10
2022-11-26T12:52:14.323Z,13.10
2022-11-26T12:54:55.988Z,13.10
2022-11-26T12:57:36.396Z,13.00
2022-11-26T13:00:30.142Z,12.90
2022-11-26T13:03:00.220Z,12.80
2022-11-26T13:05:34.565Z,12.70
2022-11-26T13:08:25.977Z,12.70
2022-11-26T13:11:08.566Z,12.70
2022-11-26T13:13:40.344Z,12.80
2022-11-26T13:16:35.728Z,12.70
2022-11-26T13:19:30.091Z,12.80
2022-11-26T13:22:23.560Z,12.80
2022-11-26T13:25:39.728Z,12.80
2022-11-26T13:28:22.900Z,12.80
2022-11-26T13:31:18.779Z,12.70
2022-11-26T13:34:05.073Z,12.70
2022-11-26T13:36:56.342Z,12.60
2022-11-26T13:39:42.334Z,12.60
2022-11-26T13:42:09.670Z,12.60
2022-11-26T13:45:15.679Z,12.50
2022-11-26T13:47:55.663Z,12.50
2022-11-26T13:50:29.022Z,12.50
2022-11-26T13:53:25.092Z,12.50
2022-11-26T13:56:06.309Z,12.50
2022-11-26T13:58:44.595Z,12.40
2022-11-26T14:01:28.479Z,12.40
2022-11-26T14:03:57.126Z,12.40
2022-11-26T14:10:56.786Z,12.40
2022-11-26T14:13:24.183Z,12.40
2022-11-26T14:16:10.839Z,12.30
2022-11-26T14:18:52.954Z,12.40
2022-11-26T14:21:21.731Z,12.30
2022-11-26T14:23:54.804Z,12.30
2022-11-26T14:26:29.234Z,12.30
2022-11-26T14:29:08.858Z,12.30
2022-11-26T14:31:40.488Z,12.30
2022-11-26T14:34:26.727Z,12.30
2022-11-26T14:36:59.630Z,12.30
2022-11-26T14:39:28.626Z,12.30
2022-11-26T14:42:02.231Z,12.30
2022-11-26T14:44:33.474Z,12.30
2022-11-26T14:47:09.483Z,12.30
2022-11-26T14:49:43.827Z,12.30
2022-11-26T14:52:37.223Z,12.30
2022-11-26T14:55:20.938Z,12.30
2022-11-26T14:57:56.419Z,12.30
2022-11-26T15:00:29.760Z,12.20
2022-11-26T15:02:57.728Z,12.20
2022-11-26T15:05:30.595Z,12.20
2022-11-26T15:08:02.246Z,12.20
2022-11-26T15:10:47.660Z,12.30
2022-11-26T15:13:22.578Z,12.30
2022-11-26T15:15:54.855Z,12.20
2022-11-26T15:18:35.205Z,12.30
2022-11-26T15:21:06.067Z,12.20
2022-11-26T15:23:37.509Z,12.30
2022-11-26T15:26:05.964Z,12.20
2022-11-26T15:28:38.823Z,12.20
2022-11-26T15:31:10.073Z,12.20
2022-11-26T15:33:39.495Z,12.20
2022-11-26T15:36:12.918Z,12.20
2022-11-26T15:39:03.202Z,12.20
2022-11-26T15:41:30.924Z,12.20
2022-11-26T15:44:00.339Z,12.20
2022-11-26T15:46:32.779Z,12.20
2022-11-26T15:49:07.729Z,12.20
2022-11-26T15:51:48.309Z,12.20
2022-11-26T15:54:26.420Z,12.20
2022-11-26T15:57:09.613Z,12.20
2022-11-26T15:59:44.124Z,12.20
2022-11-26T16:02:26.939Z,12.20
2022-11-26T16:04:59.773Z,12.20
2022-11-26T16:07:32.675Z,12.20
2022-11-26T16:10:37.126Z,12.20
2022-11-26T16:13:11.751Z,12.20
2022-11-26T16:15:48.590Z,12.10
2022-11-26T16:18:18.999Z,12.10
2022-11-26T16:20:47.099Z,12.20
2022-11-26T16:23:29.496Z,12.20
2022-11-26T16:26:10.876Z,12.20
2022-11-26T16:28:38.553Z,12.20
2022-11-26T16:31:07.234Z,12.20
2022-11-26T16:33:34.866Z,12.20
2022-11-26T16:36:02.803Z,12.20
2022-11-26T16:38:30.232Z,12.20
2022-11-26T16:40:57.635Z,12.20
2022-11-26T16:43:25.200Z,12.20
2022-11-26T16:45:55.463Z,12.20
2022-11-26T16:48:27.622Z,12.20
2022-11-26T16:50:56.274Z,12.10
2022-11-26T16:53:24.076Z,12.10
2022-11-26T16:55:53.572Z,12.10
2022-11-26T16:58:30.524Z,12.10
2022-11-26T17:00:58.920Z,12.10
2022-11-26T17:03:32.553Z,12.10
2022-11-26T17:06:12.564Z,12.10
2022-11-26T17:08:43.876Z,12.10
2022-11-26T17:11:14.430Z,12.20
2022-11-26T17:13:41.885Z,12.10
2022-11-26T17:16:15.833Z,12.10
2022-11-26T17:18:43.583Z,12.10
2022-11-26T17:21:10.952Z,12.10
2022-11-26T17:23:38.576Z,12.10
2022-11-26T17:26:19.660Z,12.10
2022-11-26T17:28:47.189Z,12.10
2022-11-26T17:31:14.686Z,12.10
2022-11-26T17:33:42.413Z,12.10
2022-11-26T17:36:19.030Z,12.10
2022-11-26T17:38:47.325Z,12.10
2022-11-26T17:41:15.858Z,12.10
2022-11-26T17:43:43.600Z,12.10
2022-11-26T17:46:16.508Z,12.10
2022-11-26T17:48:44.097Z,12.10
2022-11-26T17:51:13.781Z,12.10
2022-11-26T17:53:42.278Z,12.10
2022-11-26T17:56:17.820Z,12.10
2022-11-26T17:58:46.610Z,12.00
2022-11-26T18:01:14.983Z,12.10
2022-11-26T18:03:43.442Z,12.10
2022-11-26T18:06:17.825Z,12.10
2022-11-26T18:08:46.216Z,12.00
2022-11-26T18:11:15.364Z,12.10
2022-11-26T18:13:43.255Z,12.00
2022-11-26T18:16:10.701Z,12.10
2022-11-26T18:18:38.123Z,12.00
2022-11-26T18:21:05.595Z,12.00
2022-11-26T18:23:33.060Z,12.00
2022-11-26T18:26:00.941Z,12.00
2022-11-26T18:28:28.715Z,12.00
2022-11-26T18:30:59.752Z,12.00
2022-11-26T18:33:27.301Z,12.00
2022-11-26T18:35:55.480Z,11.90
2022-11-26T18:38:25.009Z,11.90
2022-11-26T18:41:00.387Z,11.90
2022-11-26T18:43:27.914Z,12.00
2022-11-26T18:45:55.451Z,12.00
2022-11-26T18:48:22.922Z,12.00
2022-11-26T18:50:59.689Z,12.00
2022-11-26T18:53:27.823Z,12.00
2022-11-26T18:55:56.352Z,12.00
2022-11-26T18:58:25.022Z,12.00
2022-11-26T19:00:58.392Z,12.00
2022-11-26T19:03:27.451Z,12.00
2022-11-26T19:05:55.140Z,12.00
2022-11-26T19:08:23.593Z,12.00
2022-11-26T19:10:51.023Z,12.00
2022-11-26T19:13:18.447Z,12.00
2022-11-26T19:15:46.507Z,12.00
2022-11-26T19:18:14.412Z,12.00
2022-11-26T19:20:49.908Z,12.00
2022-11-26T19:23:23.972Z,12.00
2022-11-26T19:25:52.389Z,12.00
2022-11-26T19:28:20.336Z,12.00
2022-11-26T19:31:01.531Z,12.00
2022-11-26T19:33:29.960Z,12.00
2022-11-26T19:35:57.816Z,12.00
2022-11-26T19:38:25.662Z,12.10
2022-11-26T19:40:57.600Z,12.10
2022-11-26T19:43:26.425Z,12.00
2022-11-26T19:46:15.881Z,12.10
2022-11-26T19:48:45.460Z,12.00
2022-11-26T19:51:14.186Z,12.00
2022-11-26T19:53:42.704Z,12.00
2022-11-26T19:56:22.745Z,12.00
2022-11-26T19:58:53.982Z,12.00
2022-11-26T20:01:22.522Z,12.00
2022-11-26T20:03:50.372Z,12.00
2022-11-26T20:06:19.332Z,12.10
2022-11-26T20:08:47.333Z,12.10
2022-11-26T20:11:15.872Z,12.10
2022-11-26T20:13:45.115Z,12.10
2022-11-26T20:16:24.627Z,12.10
2022-11-26T20:18:52.558Z,12.20
2022-11-26T20:21:22.930Z,12.20
2022-11-26T20:23:51.200Z,12.20
2022-11-26T20:26:25.351Z,12.20
2022-11-26T20:28:53.660Z,12.20
2022-11-26T20:31:23.913Z,12.20
2022-11-26T20:33:53.436Z,12.20
2022-11-26T20:36:23.122Z,12.30
2022-11-26T20:38:59.503Z,12.30
2022-11-26T20:41:27.976Z,12.30
2022-11-26T20:43:59.183Z,12.30
2022-11-26T20:46:28.416Z,12.40
2022-11-26T20:48:56.877Z,12.40
2022-11-26T20:51:25.049Z,12.30
2022-11-26T20:53:53.129Z,12.30
2022-11-26T20:56:22.119Z,12.30
2022-11-26T20:58:50.784Z,12.30
2022-11-26T21:01:22.611Z,12.30
2022-11-26T21:03:51.154Z,12.40
2022-11-26T21:06:27.596Z,12.40
2022-11-26T21:09:02.360Z,12.40
2022-11-26T21:11:30.338Z,12.40
2022-11-26T21:14:00.008Z,12.50
2022-11-26T21:16:28.521Z,12.40
2022-11-26T21:18:56.736Z,12.50
2022-11-26T21:21:25.509Z,12.50
2022-11-26T21:23:53.704Z,12.50
2022-11-26T21:26:24.031Z,12.50
2022-11-26T21:28:59.397Z,12.50
2022-11-26T21:31:28.582Z,12.50
2022-11-26T21:34:04.467Z,12.40
2022-11-26T21:36:34.849Z,12.50
2022-11-26T21:39:02.389Z,12.50
2022-11-26T21:41:31.949Z,12.50
2022-11-26T21:44:03.680Z,12.50
2022-11-26T21:46:36.568Z,12.50
2022-11-26T21:49:06.224Z,12.50
2022-11-26T21:51:33.585Z,12.50
2022-11-26T21:54:00.948Z,12.50
2022-11-26T21:56:30.644Z,12.50
2022-11-26T21:58:59.908Z,12.50
2022-11-26T22:01:30.259Z,12.50
2022-11-26T22:08:28.672Z,12.60
2022-11-26T22:10:56.029Z,12.60
2022-11-26T22:13:23.479Z,12.60
2022-11-26T22:15:50.857Z,12.60
2022-11-26T22:18:18.218Z,12.50
2022-11-26T22:20:52.985Z,12.50
2022-11-26T22:23:21.367Z,12.50
2022-11-26T22:25:49.347Z,12.50
2022-11-26T22:28:16.759Z,12.50
2022-11-26T22:30:44.163Z,12.50
2022-11-26T22:33:11.651Z,12.50
2022-11-26T22:35:39.014Z,12.50
2022-11-26T22:38:06.418Z,12.40
2022-11-26T22:40:33.848Z,12.40
2022-11-26T22:43:01.778Z,12.40
2022-11-26T22:45:29.974Z,12.40
2022-11-26T22:47:57.402Z,12.40
2022-11-26T22:50:24.863Z,12.40
2022-11-26T22:52:52.388Z,12.40
2022-11-26T22:55:19.863Z,12.30
2022-11-26T22:57:47.260Z,12.30
2022-11-26T23:00:48.441Z,12.30
2022-11-26T23:03:16.743Z,12.20
2022-11-26T23:05:44.253Z,12.20
2022-11-26T23:08:12.535Z,12.10
2022-11-26T23:10:40.713Z,12.00
2022-11-26T23:13:10.490Z,12.00
2022-11-26T23:15:44.713Z,11.90
2022-11-26T23:18:14.586Z,11.80
2022-11-26T23:20:42.709Z,11.60
2022-11-26T23:23:10.499Z,11.50
2022-11-26T23:25:39.655Z,11.40
2022-11-26T23:28:07.621Z,11.40
2022-11-26T23:30:35.895Z,11.30
2022-11-26T23:33:03.458Z,11.30
2022-11-26T23:35:30.816Z,11.20
2022-11-26T23:37:58.265Z,11.20
2022-11-26T23:40:25.622Z,11.20
2022-11-26T23:42:53.187Z,11.20
2022-11-26T23:45:20.610Z,11.10
2022-11-26T23:47:47.970Z,11.10
2022-11-26T23:50:15.342Z,11.10
2022-11-26T23:52:42.728Z,11.10
2022-11-26T23:55:10.382Z,11.10
2022-11-26T23:57:37.782Z,11.00
